<?xml version="1.0" encoding="UTF-8"?><gpx version="1.1" creator="Relive" xmlns="http://www.topografix.com/GPX/1/1" xmlns:xsi="http://www.w3.org/2001/XMLSchema-instance" xsi:schemaLocation="http://www.topografix.com/GPX/1/1 http://www.topografix.com/GPX/1/1/gpx.xsd http://www.garmin.com/xmlschemas/TrackPointExtension/v1 http://www.garmin.com/xmlschemas/TrackPointExtensionv1.xsd http://www.garmin.com/xmlschemas/GpxExtensions/v3 http://www.garmin.com/xmlschemas/GpxExtensionsv3.xsd" xmlns:gpxtpx="http://www.garmin.com/xmlschemas/TrackPointExtension/v1" xmlns:gpxx="http://www.garmin.com/xmlschemas/GpxExtensions/v3"><metadata><time>2023-07-10T08:34:36.000Z</time><name>Hliniky singletrail 1</name></metadata><trk><trkseg><trkpt lat="48.735331" lon="17.578782"><time>2023-07-10T08:34:36.000Z</time><ele>497.05</ele></trkpt><trkpt lat="48.735374" lon="17.57873"><time>2023-07-10T08:34:54.000Z</time><ele>496.79</ele></trkpt><trkpt lat="48.735408" lon="17.578684"><time>2023-07-10T08:34:56.000Z</time><ele>495.66</ele></trkpt><trkpt lat="48.735487" lon="17.578593"><time>2023-07-10T08:34:58.000Z</time><ele>495.5</ele></trkpt><trkpt lat="48.735532" lon="17.578529"><time>2023-07-10T08:34:59.000Z</time><ele>494.16</ele></trkpt><trkpt lat="48.735582" lon="17.578496"><time>2023-07-10T08:35:00.000Z</time><ele>493.69</ele></trkpt><trkpt lat="48.73564" lon="17.578488"><time>2023-07-10T08:35:01.000Z</time><ele>492.5</ele></trkpt><trkpt lat="48.735697" lon="17.578436"><time>2023-07-10T08:35:03.000Z</time><ele>492.65</ele></trkpt><trkpt lat="48.73572" lon="17.578371"><time>2023-07-10T08:35:04.000Z</time><ele>492.66</ele></trkpt><trkpt lat="48.735755" lon="17.5783"><time>2023-07-10T08:35:05.000Z</time><ele>491.9</ele></trkpt><trkpt lat="48.735808" lon="17.578239"><time>2023-07-10T08:35:07.000Z</time><ele>489.7</ele></trkpt><trkpt lat="48.735857" lon="17.578202"><time>2023-07-10T08:35:08.000Z</time><ele>490.48</ele></trkpt><trkpt lat="48.735924" lon="17.57816"><time>2023-07-10T08:35:09.000Z</time><ele>489.4</ele></trkpt><trkpt lat="48.73599" lon="17.578122"><time>2023-07-10T08:35:10.000Z</time><ele>488.54</ele></trkpt><trkpt lat="48.736048" lon="17.57808"><time>2023-07-10T08:35:12.000Z</time><ele>484.7</ele></trkpt><trkpt lat="48.736099" lon="17.578033"><time>2023-07-10T08:35:14.000Z</time><ele>485.21</ele></trkpt><trkpt lat="48.736125" lon="17.577932"><time>2023-07-10T08:35:16.000Z</time><ele>484.29</ele></trkpt><trkpt lat="48.736135" lon="17.577849"><time>2023-07-10T08:35:17.000Z</time><ele>484.53</ele></trkpt><trkpt lat="48.736151" lon="17.577767"><time>2023-07-10T08:35:18.000Z</time><ele>482.76</ele></trkpt><trkpt lat="48.736188" lon="17.577727"><time>2023-07-10T08:35:19.000Z</time><ele>481.1</ele></trkpt><trkpt lat="48.736243" lon="17.577706"><time>2023-07-10T08:35:21.000Z</time><ele>480.83</ele></trkpt><trkpt lat="48.736294" lon="17.577667"><time>2023-07-10T08:35:23.000Z</time><ele>481.08</ele></trkpt><trkpt lat="48.736352" lon="17.577613"><time>2023-07-10T08:35:24.000Z</time><ele>481.32</ele></trkpt><trkpt lat="48.736387" lon="17.577564"><time>2023-07-10T08:35:25.000Z</time><ele>482.09</ele></trkpt><trkpt lat="48.736458" lon="17.577533"><time>2023-07-10T08:35:27.000Z</time><ele>481.73</ele></trkpt><trkpt lat="48.736505" lon="17.577501"><time>2023-07-10T08:35:28.000Z</time><ele>481.94</ele></trkpt><trkpt lat="48.736567" lon="17.577431"><time>2023-07-10T08:35:30.000Z</time><ele>476.78</ele></trkpt><trkpt lat="48.736689" lon="17.577383"><time>2023-07-10T08:35:32.000Z</time><ele>473.34</ele></trkpt><trkpt lat="48.736761" lon="17.577336"><time>2023-07-10T08:35:34.000Z</time><ele>473.62</ele></trkpt><trkpt lat="48.736818" lon="17.577312"><time>2023-07-10T08:35:36.000Z</time><ele>471.07</ele></trkpt><trkpt lat="48.736878" lon="17.577168"><time>2023-07-10T08:35:38.000Z</time><ele>470.99</ele></trkpt><trkpt lat="48.736899" lon="17.57709"><time>2023-07-10T08:35:39.000Z</time><ele>470.31</ele></trkpt><trkpt lat="48.736911" lon="17.577024"><time>2023-07-10T08:35:40.000Z</time><ele>470.88</ele></trkpt><trkpt lat="48.736898" lon="17.576932"><time>2023-07-10T08:35:41.000Z</time><ele>470.86</ele></trkpt><trkpt lat="48.736926" lon="17.576877"><time>2023-07-10T08:35:42.000Z</time><ele>470.13</ele></trkpt><trkpt lat="48.736936" lon="17.576808"><time>2023-07-10T08:35:44.000Z</time><ele>469.29</ele></trkpt><trkpt lat="48.736958" lon="17.576718"><time>2023-07-10T08:35:46.000Z</time><ele>466.76</ele></trkpt><trkpt lat="48.736988" lon="17.576618"><time>2023-07-10T08:35:48.000Z</time><ele>465.41</ele></trkpt><trkpt lat="48.737018" lon="17.576522"><time>2023-07-10T08:35:50.000Z</time><ele>463.13</ele></trkpt><trkpt lat="48.737061" lon="17.576404"><time>2023-07-10T08:35:52.000Z</time><ele>464.47</ele></trkpt><trkpt lat="48.737091" lon="17.576312"><time>2023-07-10T08:35:53.000Z</time><ele>463.23</ele></trkpt><trkpt lat="48.737127" lon="17.576234"><time>2023-07-10T08:35:54.000Z</time><ele>461.91</ele></trkpt><trkpt lat="48.737149" lon="17.576158"><time>2023-07-10T08:35:55.000Z</time><ele>461.16</ele></trkpt><trkpt lat="48.737173" lon="17.576093"><time>2023-07-10T08:35:56.000Z</time><ele>460.64</ele></trkpt><trkpt lat="48.737217" lon="17.576052"><time>2023-07-10T08:35:57.000Z</time><ele>459.53</ele></trkpt><trkpt lat="48.73725" lon="17.575979"><time>2023-07-10T08:35:58.000Z</time><ele>459.71</ele></trkpt><trkpt lat="48.737285" lon="17.575925"><time>2023-07-10T08:35:59.000Z</time><ele>459.86</ele></trkpt><trkpt lat="48.737319" lon="17.575843"><time>2023-07-10T08:36:00.000Z</time><ele>453.9</ele></trkpt><trkpt lat="48.737338" lon="17.575769"><time>2023-07-10T08:36:01.000Z</time><ele>452.54</ele></trkpt><trkpt lat="48.737364" lon="17.575679"><time>2023-07-10T08:36:02.000Z</time><ele>451.58</ele></trkpt><trkpt lat="48.737396" lon="17.575576"><time>2023-07-10T08:36:04.000Z</time><ele>452.5</ele></trkpt><trkpt lat="48.737419" lon="17.575445"><time>2023-07-10T08:36:06.000Z</time><ele>451.53</ele></trkpt><trkpt lat="48.737434" lon="17.575306"><time>2023-07-10T08:36:08.000Z</time><ele>449.73</ele></trkpt><trkpt lat="48.737438" lon="17.575236"><time>2023-07-10T08:36:09.000Z</time><ele>449.96</ele></trkpt><trkpt lat="48.737443" lon="17.575145"><time>2023-07-10T08:36:10.000Z</time><ele>450.47</ele></trkpt><trkpt lat="48.737464" lon="17.575002"><time>2023-07-10T08:36:12.000Z</time><ele>447.33</ele></trkpt><trkpt lat="48.737481" lon="17.574932"><time>2023-07-10T08:36:13.000Z</time><ele>446.17</ele></trkpt><trkpt lat="48.737418" lon="17.574794"><time>2023-07-10T08:36:15.000Z</time><ele>444.27</ele></trkpt><trkpt lat="48.737389" lon="17.574736"><time>2023-07-10T08:36:16.000Z</time><ele>444.51</ele></trkpt><trkpt lat="48.7374" lon="17.574645"><time>2023-07-10T08:36:18.000Z</time><ele>443.31</ele></trkpt><trkpt lat="48.737411" lon="17.574569"><time>2023-07-10T08:36:19.000Z</time><ele>443.5</ele></trkpt><trkpt lat="48.737417" lon="17.574404"><time>2023-07-10T08:36:21.000Z</time><ele>441.77</ele></trkpt><trkpt lat="48.737435" lon="17.574265"><time>2023-07-10T08:36:23.000Z</time><ele>440.1</ele></trkpt><trkpt lat="48.737476" lon="17.574124"><time>2023-07-10T08:36:25.000Z</time><ele>437.97</ele></trkpt><trkpt lat="48.737532" lon="17.574015"><time>2023-07-10T08:36:27.000Z</time><ele>435.4</ele></trkpt><trkpt lat="48.73758" lon="17.573955"><time>2023-07-10T08:36:29.000Z</time><ele>436.82</ele></trkpt><trkpt lat="48.737612" lon="17.573892"><time>2023-07-10T08:36:31.000Z</time><ele>438.21</ele></trkpt><trkpt lat="48.737641" lon="17.573824"><time>2023-07-10T08:36:33.000Z</time><ele>437.09</ele></trkpt><trkpt lat="48.737667" lon="17.573629"><time>2023-07-10T08:36:35.000Z</time><ele>437.38</ele></trkpt><trkpt lat="48.737649" lon="17.573551"><time>2023-07-10T08:36:36.000Z</time><ele>434.42</ele></trkpt><trkpt lat="48.737638" lon="17.573427"><time>2023-07-10T08:36:38.000Z</time><ele>434.76</ele></trkpt><trkpt lat="48.737628" lon="17.573287"><time>2023-07-10T08:36:40.000Z</time><ele>431.81</ele></trkpt><trkpt lat="48.737602" lon="17.573195"><time>2023-07-10T08:36:42.000Z</time><ele>431.25</ele></trkpt><trkpt lat="48.737639" lon="17.57315"><time>2023-07-10T08:36:46.000Z</time><ele>430.84</ele></trkpt><trkpt lat="48.737977" lon="17.572911"><time>2023-07-10T08:36:54.000Z</time><ele>426.79</ele></trkpt><trkpt lat="48.738014" lon="17.572825"><time>2023-07-10T08:36:56.000Z</time><ele>425.55</ele></trkpt><trkpt lat="48.738021" lon="17.572729"><time>2023-07-10T08:36:59.000Z</time><ele>425.07</ele></trkpt><trkpt lat="48.738025" lon="17.57263"><time>2023-07-10T08:37:02.000Z</time><ele>424.36</ele></trkpt><trkpt lat="48.738031" lon="17.572552"><time>2023-07-10T08:37:04.000Z</time><ele>424.92</ele></trkpt><trkpt lat="48.738042" lon="17.572467"><time>2023-07-10T08:37:06.000Z</time><ele>423.64</ele></trkpt><trkpt lat="48.738063" lon="17.57236"><time>2023-07-10T08:37:08.000Z</time><ele>422.86</ele></trkpt><trkpt lat="48.738075" lon="17.572245"><time>2023-07-10T08:37:10.000Z</time><ele>421.96</ele></trkpt><trkpt lat="48.738077" lon="17.572152"><time>2023-07-10T08:37:12.000Z</time><ele>421.51</ele></trkpt><trkpt lat="48.738077" lon="17.572044"><time>2023-07-10T08:37:14.000Z</time><ele>421.09</ele></trkpt><trkpt lat="48.738082" lon="17.571949"><time>2023-07-10T08:37:16.000Z</time><ele>420.45</ele></trkpt><trkpt lat="48.738075" lon="17.571869"><time>2023-07-10T08:37:18.000Z</time><ele>421.04</ele></trkpt><trkpt lat="48.738048" lon="17.571808"><time>2023-07-10T08:37:20.000Z</time><ele>422.42</ele></trkpt><trkpt lat="48.738029" lon="17.571737"><time>2023-07-10T08:37:22.000Z</time><ele>422.52</ele></trkpt><trkpt lat="48.738025" lon="17.571664"><time>2023-07-10T08:37:24.000Z</time><ele>422.1</ele></trkpt><trkpt lat="48.73804" lon="17.571583"><time>2023-07-10T08:37:26.000Z</time><ele>422.15</ele></trkpt><trkpt lat="48.738036" lon="17.57151"><time>2023-07-10T08:37:28.000Z</time><ele>422.37</ele></trkpt><trkpt lat="48.738028" lon="17.571431"><time>2023-07-10T08:37:30.000Z</time><ele>421.91</ele></trkpt><trkpt lat="48.738021" lon="17.571355"><time>2023-07-10T08:37:32.000Z</time><ele>422.76</ele></trkpt><trkpt lat="48.738021" lon="17.571255"><time>2023-07-10T08:37:35.000Z</time><ele>423.5</ele></trkpt><trkpt lat="48.738035" lon="17.571167"><time>2023-07-10T08:37:38.000Z</time><ele>424.19</ele></trkpt><trkpt lat="48.73804" lon="17.571099"><time>2023-07-10T08:37:40.000Z</time><ele>424.76</ele></trkpt><trkpt lat="48.738047" lon="17.571027"><time>2023-07-10T08:37:42.000Z</time><ele>425.16</ele></trkpt><trkpt lat="48.738052" lon="17.57095"><time>2023-07-10T08:37:44.000Z</time><ele>425.51</ele></trkpt><trkpt lat="48.738058" lon="17.570882"><time>2023-07-10T08:37:46.000Z</time><ele>425.17</ele></trkpt><trkpt lat="48.738078" lon="17.570815"><time>2023-07-10T08:37:48.000Z</time><ele>425.25</ele></trkpt><trkpt lat="48.738079" lon="17.570717"><time>2023-07-10T08:37:51.000Z</time><ele>426.02</ele></trkpt><trkpt lat="48.738064" lon="17.570645"><time>2023-07-10T08:37:53.000Z</time><ele>426.27</ele></trkpt><trkpt lat="48.738027" lon="17.570586"><time>2023-07-10T08:37:55.000Z</time><ele>427.18</ele></trkpt><trkpt lat="48.737981" lon="17.570548"><time>2023-07-10T08:37:57.000Z</time><ele>428.77</ele></trkpt><trkpt lat="48.737943" lon="17.570498"><time>2023-07-10T08:37:59.000Z</time><ele>428.71</ele></trkpt><trkpt lat="48.737908" lon="17.570409"><time>2023-07-10T08:38:01.000Z</time><ele>428.95</ele></trkpt><trkpt lat="48.737865" lon="17.570323"><time>2023-07-10T08:38:03.000Z</time><ele>428.41</ele></trkpt><trkpt lat="48.737824" lon="17.57027"><time>2023-07-10T08:38:05.000Z</time><ele>427.99</ele></trkpt><trkpt lat="48.737824" lon="17.57027"><time>2023-07-10T08:38:05.001Z</time><ele>427.99</ele></trkpt></trkseg></trk></gpx>